sensor_id;sensor_type;location;lat;lon;timestamp;temperature;humidity
15844;DHT22;50807;52.436;13.346;2022-10-16T00:00:08;19.30;96.40
15844;DHT22;50807;52.436;13.346;2022-10-16T00:00:40;19.30;96.40
15844;DHT22;50807;52.436;13.346;2022-10-16T00:01:15;19.30;96.40
15844;DHT22;50807;52.436;13.346;2022-10-16T00:01:47;19.30;96.40
15844;DHT22;50807;52.436;13.346;2022-10-16T00:02:18;19.30;96.40
15844;DHT22;50807;52.436;13.346;2022-10-16T00:02:51;19.30;96.40
15844;DHT22;50807;52.436;13.346;2022-10-16T00:03:22;19.30;96.40
15844;DHT22;50807;52.436;13.346;2022-10-16T00:03:52;19.30;96.40
15844;DHT22;50807;52.436;13.346;2022-10-16T00:04:24;19.30;96.40
15844;DHT22;50807;52.436;13.346;2022-10-16T00:04:55;19.40;96.50
15844;DHT22;50807;52.436;13.346;2022-10-16T00:05:26;19.30;96.40
15844;DHT22;50807;52.436;13.346;2022-10-16T00:05:58;19.40;96.50
15844;DHT22;50807;52.436;13.346;2022-10-16T00:06:31;19.40;96.50
15844;DHT22;50807;52.436;13.346;2022-10-16T00:07:02;19.40;96.50
15844;DHT22;50807;52.436;13.346;2022-10-16T00:07:34;19.40;96.50
15844;DHT22;50807;52.436;13.346;2022-10-16T00:08:05;19.40;96.50
15844;DHT22;50807;52.436;13.346;2022-10-16T00:08:38;19.40;96.50
15844;DHT22;50807;52.436;13.346;2022-10-16T00:09:09;19.40;96.50
15844;DHT22;50807;52.436;13.346;2022-10-16T00:09:41;19.40;96.50
15844;DHT22;50807;52.436;13.346;2022-10-16T00:10:11;19.40;96.50
15844;DHT22;50807;52.436;13.346;2022-10-16T00:10:42;19.40;96.50
15844;DHT22;50807;52.436;13.346;2022-10-16T00:11:15;19.40;96.50
15844;DHT22;50807;52.436;13.346;2022-10-16T00:11:49;19.40;96.50
15844;DHT22;50807;52.436;13.346;2022-10-16T00:12:19;19.40;96.50
15844;DHT22;50807;52.436;13.346;2022-10-16T00:12:50;19.40;96.50
15844;DHT22;50807;52.436;13.346;2022-10-16T00:13:21;19.50;96.50
15844;DHT22;50807;52.436;13.346;2022-10-16T00:13:56;19.40;96.50
15844;DHT22;50807;52.436;13.346;2022-10-16T00:14:28;19.40;96.50
15844;DHT22;50807;52.436;13.346;2022-10-16T00:15:00;19.40;96.50
15844;DHT22;50807;52.436;13.346;2022-10-16T00:15:33;19.40;96.50
15844;DHT22;50807;52.436;13.346;2022-10-16T00:16:07;19.40;96.50
15844;DHT22;50807;52.436;13.346;2022-10-16T00:16:40;19.50;96.60
15844;DHT22;50807;52.436;13.346;2022-10-16T00:17:11;19.50;96.50
15844;DHT22;50807;52.436;13.346;2022-10-16T00:17:41;19.50;96.50
15844;DHT22;50807;52.436;13.346;2022-10-16T00:18:14;19.50;96.50
15844;DHT22;50807;52.436;13.346;2022-10-16T00:18:45;19.50;96.50
15844;DHT22;50807;52.436;13.346;2022-10-16T00:19:16;19.50;96.50
15844;DHT22;50807;52.436;13.346;2022-10-16T00:19:48;19.50;96.50
15844;DHT22;50807;52.436;13.346;2022-10-16T00:20:19;19.50;96.50
15844;DHT22;50807;52.436;13.346;2022-10-16T00:20:50;19.50;96.50
15844;DHT22;50807;52.436;13.346;2022-10-16T00:21:23;19.50;96.50
15844;DHT22;50807;52.436;13.346;2022-10-16T00:21:56;19.50;96.50
15844;DHT22;50807;52.436;13.346;2022-10-16T00:22:27;19.50;96.50
15844;DHT22;50807;52.436;13.346;2022-10-16T00:22:57;19.50;96.50
15844;DHT22;50807;52.436;13.346;2022-10-16T00:23:29;19.50;96.50
15844;DHT22;50807;52.436;13.346;2022-10-16T00:24:03;19.50;96.50
15844;DHT22;50807;52.436;13.346;2022-10-16T00:24:36;19.50;96.50
15844;DHT22;50807;52.436;13.346;2022-10-16T00:25:08;19.60;96.50
15844;DHT22;50807;52.436;13.346;2022-10-16T00:25:39;19.50;96.50
15844;DHT22;50807;52.436;13.346;2022-10-16T00:26:12;19.50;96.50
15844;DHT22;50807;52.436;13.346;2022-10-16T00:26:45;19.50;96.50
15844;DHT22;50807;52.436;13.346;2022-10-16T00:27:20;19.50;96.50
15844;DHT22;50807;52.436;13.346;2022-10-16T00:27:50;19.50;96.50
15844;DHT22;50807;52.436;13.346;2022-10-16T00:28:22;19.60;96.50
15844;DHT22;50807;52.436;13.346;2022-10-16T00:28:53;19.60;96.50
15844;DHT22;50807;52.436;13.346;2022-10-16T00:29:24;19.60;96.50
15844;DHT22;50807;52.436;13.346;2022-10-16T00:29:56;19.60;96.50
15844;DHT22;50807;52.436;13.346;2022-10-16T00:30:26;19.60;96.80
15844;DHT22;50807;52.436;13.346;2022-10-16T00:30:58;19.60;96.50
15844;DHT22;50807;52.436;13.346;2022-10-16T00:31:30;19.60;96.50
15844;DHT22;50807;52.436;13.346;2022-10-16T00:32:01;19.60;96.50
15844;DHT22;50807;52.436;13.346;2022-10-16T00:32:32;19.60;96.50
15844;DHT22;50807;52.436;13.346;2022-10-16T00:33:04;19.60;96.50
15844;DHT22;50807;52.436;13.346;2022-10-16T00:33:37;19.60;96.50
15844;DHT22;50807;52.436;13.346;2022-10-16T00:34:09;19.60;96.50
15844;DHT22;50807;52.436;13.346;2022-10-16T00:34:41;19.60;96.50
15844;DHT22;50807;52.436;13.346;2022-10-16T00:35:12;19.60;96.50
15844;DHT22;50807;52.436;13.346;2022-10-16T00:35:43;19.60;96.50
15844;DHT22;50807;52.436;13.346;2022-10-16T00:36:15;19.60;96.50
15844;DHT22;50807;52.436;13.346;2022-10-16T00:36:48;19.60;96.50
15844;DHT22;50807;52.436;13.346;2022-10-16T00:37:19;19.60;96.50
15844;DHT22;50807;52.436;13.346;2022-10-16T00:37:50;19.60;96.50
15844;DHT22;50807;52.436;13.346;2022-10-16T00:38:22;19.60;96.50
15844;DHT22;50807;52.436;13.346;2022-10-16T00:38:54;19.60;96.50
15844;DHT22;50807;52.436;13.346;2022-10-16T00:39:27;19.60;96.50
15844;DHT22;50807;52.436;13.346;2022-10-16T00:39:59;19.70;96.50
15844;DHT22;50807;52.436;13.346;2022-10-16T00:40:30;19.60;96.50
15844;DHT22;50807;52.436;13.346;2022-10-16T00:41:01;19.60;96.50
15844;DHT22;50807;52.436;13.346;2022-10-16T00:41:33;19.60;96.50
15844;DHT22;50807;52.436;13.346;2022-10-16T00:42:04;19.60;96.50
15844;DHT22;50807;52.436;13.346;2022-10-16T00:42:35;19.70;96.50
15844;DHT22;50807;52.436;13.346;2022-10-16T00:43:12;19.60;96.40
15844;DHT22;50807;52.436;13.346;2022-10-16T00:43:46;19.60;96.50
15844;DHT22;50807;52.436;13.346;2022-10-16T00:44:42;19.60;96.40
15844;DHT22;50807;52.436;13.346;2022-10-16T00:45:16;19.60;96.50
15844;DHT22;50807;52.436;13.346;2022-10-16T00:45:47;19.60;96.40
15844;DHT22;50807;52.436;13.346;2022-10-16T00:46:20;19.70;96.40
15844;DHT22;50807;52.436;13.346;2022-10-16T00:46:54;19.60;96.30
15844;DHT22;50807;52.436;13.346;2022-10-16T00:47:28;19.70;96.40
15844;DHT22;50807;52.436;13.346;2022-10-16T00:48:02;19.60;96.30
15844;DHT22;50807;52.436;13.346;2022-10-16T00:48:35;19.70;96.30
15844;DHT22;50807;52.436;13.346;2022-10-16T00:49:09;19.60;96.30
15844;DHT22;50807;52.436;13.346;2022-10-16T00:49:41;19.60;96.30
15844;DHT22;50807;52.436;13.346;2022-10-16T00:50:16;19.60;96.30
15844;DHT22;50807;52.436;13.346;2022-10-16T00:50:53;19.60;96.40
15844;DHT22;50807;52.436;13.346;2022-10-16T00:51:28;19.70;96.40
15844;DHT22;50807;52.436;13.346;2022-10-16T00:52:02;19.60;96.40
15844;DHT22;50807;52.436;13.346;2022-10-16T00:52:34;19.60;96.30
15844;DHT22;50807;52.436;13.346;2022-10-16T00:53:05;19.60;96.30
15844;DHT22;50807;52.436;13.346;2022-10-16T00:53:36;19.60;96.40
15844;DHT22;50807;52.436;13.346;2022-10-16T00:54:10;19.60;96.40
15844;DHT22;50807;52.436;13.346;2022-10-16T00:54:46;19.60;96.40
15844;DHT22;50807;52.436;13.346;2022-10-16T00:55:18;19.70;96.50
15844;DHT22;50807;52.436;13.346;2022-10-16T00:55:50;19.60;96.40
15844;DHT22;50807;52.436;13.346;2022-10-16T00:56:22;19.60;96.40
15844;DHT22;50807;52.436;13.346;2022-10-16T00:56:53;19.60;96.50
15844;DHT22;50807;52.436;13.346;2022-10-16T00:57:25;19.60;96.50
15844;DHT22;50807;52.436;13.346;2022-10-16T00:57:57;19.60;96.50
15844;DHT22;50807;52.436;13.346;2022-10-16T00:58:28;19.60;96.50
15844;DHT22;50807;52.436;13.346;2022-10-16T00:58:59;19.60;96.50
15844;DHT22;50807;52.436;13.346;2022-10-16T00:59:36;19.60;96.50
15844;DHT22;50807;52.436;13.346;2022-10-16T01:00:14;19.60;96.50
15844;DHT22;50807;52.436;13.346;2022-10-16T01:00:48;19.60;96.50
15844;DHT22;50807;52.436;13.346;2022-10-16T01:01:20;19.60;96.50
15844;DHT22;50807;52.436;13.346;2022-10-16T01:01:51;19.60;96.50
15844;DHT22;50807;52.436;13.346;2022-10-16T01:02:23;19.60;96.50
15844;DHT22;50807;52.436;13.346;2022-10-16T01:02:56;19.60;96.50
15844;DHT22;50807;52.436;13.346;2022-10-16T01:03:30;19.60;96.50
15844;DHT22;50807;52.436;13.346;2022-10-16T01:04:03;19.60;96.50
15844;DHT22;50807;52.436;13.346;2022-10-16T01:04:37;19.70;96.50
15844;DHT22;50807;52.436;13.346;2022-10-16T01:05:11;19.60;96.50
15844;DHT22;50807;52.436;13.346;2022-10-16T01:05:49;19.60;96.50
15844;DHT22;50807;52.436;13.346;2022-10-16T01:06:32;19.70;96.50
15844;DHT22;50807;52.436;13.346;2022-10-16T01:07:14;19.70;96.60
15844;DHT22;50807;52.436;13.346;2022-10-16T01:08:00;19.70;96.50
15844;DHT22;50807;52.436;13.346;2022-10-16T01:08:44;19.70;96.50
15844;DHT22;50807;52.436;13.346;2022-10-16T01:09:29;19.70;96.40
15844;DHT22;50807;52.436;13.346;2022-10-16T01:10:13;19.70;96.40
15844;DHT22;50807;52.436;13.346;2022-10-16T01:10:56;19.70;96.40
15844;DHT22;50807;52.436;13.346;2022-10-16T01:11:34;19.70;96.40
15844;DHT22;50807;52.436;13.346;2022-10-16T01:12:15;19.70;96.30
15844;DHT22;50807;52.436;13.346;2022-10-16T01:12:54;19.70;96.30
15844;DHT22;50807;52.436;13.346;2022-10-16T01:13:37;19.70;96.30
15844;DHT22;50807;52.436;13.346;2022-10-16T01:14:16;19.70;96.30
15844;DHT22;50807;52.436;13.346;2022-10-16T01:14:55;19.70;96.30
15844;DHT22;50807;52.436;13.346;2022-10-16T01:15:35;19.70;96.30
15844;DHT22;50807;52.436;13.346;2022-10-16T01:16:15;19.70;96.30
15844;DHT22;50807;52.436;13.346;2022-10-16T01:17:00;19.60;96.30
15844;DHT22;50807;52.436;13.346;2022-10-16T01:17:37;19.60;96.30
15844;DHT22;50807;52.436;13.346;2022-10-16T01:18:16;19.60;96.30
15844;DHT22;50807;52.436;13.346;2022-10-16T01:18:57;19.60;96.20
15844;DHT22;50807;52.436;13.346;2022-10-16T01:19:50;19.60;96.30
15844;DHT22;50807;52.436;13.346;2022-10-16T01:20:37;19.60;96.30
15844;DHT22;50807;52.436;13.346;2022-10-16T01:21:16;19.70;96.60
15844;DHT22;50807;52.436;13.346;2022-10-16T01:21:53;19.60;96.20
15844;DHT22;50807;52.436;13.346;2022-10-16T01:22:35;19.60;96.20
15844;DHT22;50807;52.436;13.346;2022-10-16T01:23:26;19.60;96.20
15844;DHT22;50807;52.436;13.346;2022-10-16T01:24:06;19.60;96.30
15844;DHT22;50807;52.436;13.346;2022-10-16T01:24:45;19.60;96.20
15844;DHT22;50807;52.436;13.346;2022-10-16T01:25:25;19.60;96.30
15844;DHT22;50807;52.436;13.346;2022-10-16T01:26:28;19.60;96.30
15844;DHT22;50807;52.436;13.346;2022-10-16T01:27:10;19.60;96.30
15844;DHT22;50807;52.436;13.346;2022-10-16T01:27:45;19.60;96.30
15844;DHT22;50807;52.436;13.346;2022-10-16T01:28:19;19.60;96.20
15844;DHT22;50807;52.436;13.346;2022-10-16T01:28:58;19.60;96.20
15844;DHT22;50807;52.436;13.346;2022-10-16T01:29:39;19.60;96.30
15844;DHT22;50807;52.436;13.346;2022-10-16T01:30:20;19.50;96.30
15844;DHT22;50807;52.436;13.346;2022-10-16T01:30:55;19.50;96.30
15844;DHT22;50807;52.436;13.346;2022-10-16T01:31:35;19.50;96.30
15844;DHT22;50807;52.436;13.346;2022-10-16T01:32:14;19.50;96.40
15844;DHT22;50807;52.436;13.346;2022-10-16T01:32:52;19.50;96.40
15844;DHT22;50807;52.436;13.346;2022-10-16T01:33:30;19.50;96.40
15844;DHT22;50807;52.436;13.346;2022-10-16T01:34:12;19.50;96.40
15844;DHT22;50807;52.436;13.346;2022-10-16T01:34:51;19.50;96.40
15844;DHT22;50807;52.436;13.346;2022-10-16T01:35:27;19.50;96.40
15844;DHT22;50807;52.436;13.346;2022-10-16T01:36:05;19.50;96.40
15844;DHT22;50807;52.436;13.346;2022-10-16T01:36:44;19.50;96.40
15844;DHT22;50807;52.436;13.346;2022-10-16T01:37:25;19.40;96.40
15844;DHT22;50807;52.436;13.346;2022-10-16T01:38:06;19.40;96.40
15844;DHT22;50807;52.436;13.346;2022-10-16T01:38:44;19.50;96.50
15844;DHT22;50807;52.436;13.346;2022-10-16T01:39:21;19.40;96.40
15844;DHT22;50807;52.436;13.346;2022-10-16T01:39:57;19.40;96.50
15844;DHT22;50807;52.436;13.346;2022-10-16T01:40:33;19.50;96.50
15844;DHT22;50807;52.436;13.346;2022-10-16T01:41:09;19.40;96.50
15844;DHT22;50807;52.436;13.346;2022-10-16T01:41:45;19.40;96.50
15844;DHT22;50807;52.436;13.346;2022-10-16T01:42:27;19.40;96.50
15844;DHT22;50807;52.436;13.346;2022-10-16T01:43:08;19.40;96.60
15844;DHT22;50807;52.436;13.346;2022-10-16T01:43:46;19.40;96.60
15844;DHT22;50807;52.436;13.346;2022-10-16T01:44:24;19.40;96.60
15844;DHT22;50807;52.436;13.346;2022-10-16T01:45:00;19.40;96.60
15844;DHT22;50807;52.436;13.346;2022-10-16T01:45:33;19.40;96.60
15844;DHT22;50807;52.436;13.346;2022-10-16T01:46:08;19.40;96.60
15844;DHT22;50807;52.436;13.346;2022-10-16T01:46:43;19.40;96.70
15844;DHT22;50807;52.436;13.346;2022-10-16T01:47:22;19.30;96.70
15844;DHT22;50807;52.436;13.346;2022-10-16T01:47:57;19.30;96.80
15844;DHT22;50807;52.436;13.346;2022-10-16T01:48:31;19.30;96.70
15844;DHT22;50807;52.436;13.346;2022-10-16T01:49:04;19.30;96.80
15844;DHT22;50807;52.436;13.346;2022-10-16T01:49:38;19.30;96.80
15844;DHT22;50807;52.436;13.346;2022-10-16T01:50:12;19.30;96.80
15844;DHT22;50807;52.436;13.346;2022-10-16T01:51:06;19.30;96.80
15844;DHT22;50807;52.436;13.346;2022-10-16T01:51:41;19.30;96.90
15844;DHT22;50807;52.436;13.346;2022-10-16T01:52:18;19.30;96.80
15844;DHT22;50807;52.436;13.346;2022-10-16T01:52:53;19.30;96.80
15844;DHT22;50807;52.436;13.346;2022-10-16T01:53:28;19.30;96.80
15844;DHT22;50807;52.436;13.346;2022-10-16T01:54:01;19.30;96.80
15844;DHT22;50807;52.436;13.346;2022-10-16T01:54:35;19.30;96.80
15844;DHT22;50807;52.436;13.346;2022-10-16T01:55:10;19.30;96.90
15844;DHT22;50807;52.436;13.346;2022-10-16T01:55:47;19.30;96.90
15844;DHT22;50807;52.436;13.346;2022-10-16T01:56:20;19.30;96.90
15844;DHT22;50807;52.436;13.346;2022-10-16T01:56:53;19.30;97.00
15844;DHT22;50807;52.436;13.346;2022-10-16T01:57:29;19.30;97.00
15844;DHT22;50807;52.436;13.346;2022-10-16T01:58:02;19.20;97.00
15844;DHT22;50807;52.436;13.346;2022-10-16T01:58:40;19.20;97.00
15844;DHT22;50807;52.436;13.346;2022-10-16T01:59:18;19.20;97.10
15844;DHT22;50807;52.436;13.346;2022-10-16T01:59:54;19.30;97.10
15844;DHT22;50807;52.436;13.346;2022-10-16T02:00:31;19.20;97.10
15844;DHT22;50807;52.436;13.346;2022-10-16T02:01:03;19.20;97.10
15844;DHT22;50807;52.436;13.346;2022-10-16T02:01:39;19.30;97.20
15844;DHT22;50807;52.436;13.346;2022-10-16T02:02:15;19.20;97.20
15844;DHT22;50807;52.436;13.346;2022-10-16T02:02:52;19.20;97.20
15844;DHT22;50807;52.436;13.346;2022-10-16T02:03:25;19.20;97.20
15844;DHT22;50807;52.436;13.346;2022-10-16T02:04:00;19.20;97.20
15844;DHT22;50807;52.436;13.346;2022-10-16T02:04:38;19.30;97.30
15844;DHT22;50807;52.436;13.346;2022-10-16T02:05:14;19.20;97.30
15844;DHT22;50807;52.436;13.346;2022-10-16T02:05:51;19.20;97.30
15844;DHT22;50807;52.436;13.346;2022-10-16T02:06:24;19.20;97.30
15844;DHT22;50807;52.436;13.346;2022-10-16T02:06:56;19.20;97.20
15844;DHT22;50807;52.436;13.346;2022-10-16T02:07:28;19.30;97.30
15844;DHT22;50807;52.436;13.346;2022-10-16T02:07:59;19.30;97.30
15844;DHT22;50807;52.436;13.346;2022-10-16T02:08:31;19.30;97.30
15844;DHT22;50807;52.436;13.346;2022-10-16T02:09:04;19.30;97.30
15844;DHT22;50807;52.436;13.346;2022-10-16T02:09:35;19.30;97.30
15844;DHT22;50807;52.436;13.346;2022-10-16T02:10:07;19.30;97.30
15844;DHT22;50807;52.436;13.346;2022-10-16T02:10:39;19.30;97.40
15844;DHT22;50807;52.436;13.346;2022-10-16T02:11:10;19.30;97.30
15844;DHT22;50807;52.436;13.346;2022-10-16T02:11:41;19.30;97.40
15844;DHT22;50807;52.436;13.346;2022-10-16T02:12:18;19.30;97.40
15844;DHT22;50807;52.436;13.346;2022-10-16T02:12:57;19.30;97.40
15844;DHT22;50807;52.436;13.346;2022-10-16T02:13:35;19.30;97.40
15844;DHT22;50807;52.436;13.346;2022-10-16T02:14:10;19.30;97.40
15844;DHT22;50807;52.436;13.346;2022-10-16T02:14:41;19.30;97.40
15844;DHT22;50807;52.436;13.346;2022-10-16T02:15:12;19.30;97.30
15844;DHT22;50807;52.436;13.346;2022-10-16T02:15:44;19.30;97.40
15844;DHT22;50807;52.436;13.346;2022-10-16T02:16:15;19.30;97.40
15844;DHT22;50807;52.436;13.346;2022-10-16T02:16:46;19.30;97.40
15844;DHT22;50807;52.436;13.346;2022-10-16T02:17:19;19.30;97.40
15844;DHT22;50807;52.436;13.346;2022-10-16T02:17:50;19.30;97.40
15844;DHT22;50807;52.436;13.346;2022-10-16T02:18:21;19.30;97.40
15844;DHT22;50807;52.436;13.346;2022-10-16T02:18:53;19.30;97.50
15844;DHT22;50807;52.436;13.346;2022-10-16T02:19:24;19.30;97.50
15844;DHT22;50807;52.436;13.346;2022-10-16T02:19:56;19.30;97.50
15844;DHT22;50807;52.436;13.346;2022-10-16T02:20:34;19.30;97.50
15844;DHT22;50807;52.436;13.346;2022-10-16T02:21:16;19.30;97.50
15844;DHT22;50807;52.436;13.346;2022-10-16T02:21:54;19.30;97.60
15844;DHT22;50807;52.436;13.346;2022-10-16T02:22:30;19.30;97.50
15844;DHT22;50807;52.436;13.346;2022-10-16T02:23:04;19.30;97.50
15844;DHT22;50807;52.436;13.346;2022-10-16T02:23:43;19.30;97.50
15844;DHT22;50807;52.436;13.346;2022-10-16T02:24:24;19.30;97.50
15844;DHT22;50807;52.436;13.346;2022-10-16T02:25:04;19.30;97.50
15844;DHT22;50807;52.436;13.346;2022-10-16T02:25:41;19.30;97.50
15844;DHT22;50807;52.436;13.346;2022-10-16T02:26:21;19.30;97.50
15844;DHT22;50807;52.436;13.346;2022-10-16T02:27:05;19.30;97.50
15844;DHT22;50807;52.436;13.346;2022-10-16T02:27:46;19.30;97.50
15844;DHT22;50807;52.436;13.346;2022-10-16T02:28:28;19.30;97.50
15844;DHT22;50807;52.436;13.346;2022-10-16T02:29:06;19.30;97.40
15844;DHT22;50807;52.436;13.346;2022-10-16T02:29:43;19.40;97.40
15844;DHT22;50807;52.436;13.346;2022-10-16T02:30:25;19.40;97.40
15844;DHT22;50807;52.436;13.346;2022-10-16T02:31:03;19.40;97.40
15844;DHT22;50807;52.436;13.346;2022-10-16T02:31:43;19.40;97.40
15844;DHT22;50807;52.436;13.346;2022-10-16T02:32:22;19.40;97.40
15844;DHT22;50807;52.436;13.346;2022-10-16T02:32:55;19.40;97.40
15844;DHT22;50807;52.436;13.346;2022-10-16T02:33:29;19.40;97.40
15844;DHT22;50807;52.436;13.346;2022-10-16T02:34:03;19.40;97.40
15844;DHT22;50807;52.436;13.346;2022-10-16T02:34:35;19.40;97.40
15844;DHT22;50807;52.436;13.346;2022-10-16T02:35:08;19.40;97.40
15844;DHT22;50807;52.436;13.346;2022-10-16T02:35:41;19.40;97.40
15844;DHT22;50807;52.436;13.346;2022-10-16T02:36:15;19.40;97.40
15844;DHT22;50807;52.436;13.346;2022-10-16T02:36:47;19.30;97.40
15844;DHT22;50807;52.436;13.346;2022-10-16T02:37:20;19.30;97.40
15844;DHT22;50807;52.436;13.346;2022-10-16T02:37:52;19.30;97.40
15844;DHT22;50807;52.436;13.346;2022-10-16T02:38:25;19.40;97.50
15844;DHT22;50807;52.436;13.346;2022-10-16T02:38:57;19.40;97.50
15844;DHT22;50807;52.436;13.346;2022-10-16T02:39:30;19.30;97.50
15844;DHT22;50807;52.436;13.346;2022-10-16T02:40:03;19.30;97.50
15844;DHT22;50807;52.436;13.346;2022-10-16T02:40:36;19.30;97.60
15844;DHT22;50807;52.436;13.346;2022-10-16T02:41:08;19.30;97.60
15844;DHT22;50807;52.436;13.346;2022-10-16T02:41:40;19.30;97.60
15844;DHT22;50807;52.436;13.346;2022-10-16T02:42:12;19.30;97.60
15844;DHT22;50807;52.436;13.346;2022-10-16T02:42:43;19.30;97.60
15844;DHT22;50807;52.436;13.346;2022-10-16T02:43:15;19.30;97.60
15844;DHT22;50807;52.436;13.346;2022-10-16T02:43:48;19.30;97.60
15844;DHT22;50807;52.436;13.346;2022-10-16T02:44:19;19.30;97.60
15844;DHT22;50807;52.436;13.346;2022-10-16T02:44:51;19.30;97.60
15844;DHT22;50807;52.436;13.346;2022-10-16T02:45:23;19.30;97.60
15844;DHT22;50807;52.436;13.346;2022-10-16T02:45:54;19.30;97.70
15844;DHT22;50807;52.436;13.346;2022-10-16T02:46:25;19.30;97.60
15844;DHT22;50807;52.436;13.346;2022-10-16T02:46:57;19.30;97.70
15844;DHT22;50807;52.436;13.346;2022-10-16T02:47:27;19.30;97.70
15844;DHT22;50807;52.436;13.346;2022-10-16T02:47:58;19.40;97.70
15844;DHT22;50807;52.436;13.346;2022-10-16T02:48:29;19.30;97.70
15844;DHT22;50807;52.436;13.346;2022-10-16T02:49:01;19.30;97.70
15844;DHT22;50807;52.436;13.346;2022-10-16T02:49:31;19.30;97.70
15844;DHT22;50807;52.436;13.346;2022-10-16T02:50:03;19.40;97.70
15844;DHT22;50807;52.436;13.346;2022-10-16T02:50:35;19.30;97.70
15844;DHT22;50807;52.436;13.346;2022-10-16T02:51:06;19.30;97.70
15844;DHT22;50807;52.436;13.346;2022-10-16T02:51:37;19.30;97.70
15844;DHT22;50807;52.436;13.346;2022-10-16T02:52:08;19.40;97.70
15844;DHT22;50807;52.436;13.346;2022-10-16T02:52:39;19.30;97.70
15844;DHT22;50807;52.436;13.346;2022-10-16T02:53:10;19.30;97.70
15844;DHT22;50807;52.436;13.346;2022-10-16T02:53:42;19.30;97.70
15844;DHT22;50807;52.436;13.346;2022-10-16T02:54:13;19.30;97.70
15844;DHT22;50807;52.436;13.346;2022-10-16T02:54:43;19.30;98.00
15844;DHT22;50807;52.436;13.346;2022-10-16T02:55:15;19.30;97.70
15844;DHT22;50807;52.436;13.346;2022-10-16T02:55:46;19.30;97.70
15844;DHT22;50807;52.436;13.346;2022-10-16T02:56:18;19.30;97.70
15844;DHT22;50807;52.436;13.346;2022-10-16T02:56:49;19.30;97.70
15844;DHT22;50807;52.436;13.346;2022-10-16T02:57:20;19.30;97.70
15844;DHT22;50807;52.436;13.346;2022-10-16T02:57:50;19.30;97.70
15844;DHT22;50807;52.436;13.346;2022-10-16T02:58:22;19.30;97.70
15844;DHT22;50807;52.436;13.346;2022-10-16T02:58:54;19.30;97.70
15844;DHT22;50807;52.436;13.346;2022-10-16T02:59:25;19.30;97.70
15844;DHT22;50807;52.436;13.346;2022-10-16T02:59:57;19.30;97.70
15844;DHT22;50807;52.436;13.346;2022-10-16T03:00:28;19.30;97.70
15844;DHT22;50807;52.436;13.346;2022-10-16T03:00:59;19.30;97.70
15844;DHT22;50807;52.436;13.346;2022-10-16T03:01:30;19.30;97.70
15844;DHT22;50807;52.436;13.346;2022-10-16T03:02:01;19.30;97.70
15844;DHT22;50807;52.436;13.346;2022-10-16T03:02:32;19.30;97.70
15844;DHT22;50807;52.436;13.346;2022-10-16T03:03:04;19.30;97.70
15844;DHT22;50807;52.436;13.346;2022-10-16T03:03:34;19.30;97.70
15844;DHT22;50807;52.436;13.346;2022-10-16T03:04:05;19.30;97.70
15844;DHT22;50807;52.436;13.346;2022-10-16T03:04:36;19.30;97.70
15844;DHT22;50807;52.436;13.346;2022-10-16T03:05:09;19.30;97.70
15844;DHT22;50807;52.436;13.346;2022-10-16T03:05:40;19.30;98.00
15844;DHT22;50807;52.436;13.346;2022-10-16T03:06:10;19.30;97.70
15844;DHT22;50807;52.436;13.346;2022-10-16T03:06:42;19.30;97.70
15844;DHT22;50807;52.436;13.346;2022-10-16T03:07:13;19.30;97.70
15844;DHT22;50807;52.436;13.346;2022-10-16T03:07:44;19.30;97.70
15844;DHT22;50807;52.436;13.346;2022-10-16T03:08:14;19.30;97.70
15844;DHT22;50807;52.436;13.346;2022-10-16T03:08:46;19.30;97.70
15844;DHT22;50807;52.436;13.346;2022-10-16T03:09:17;19.30;97.70
15844;DHT22;50807;52.436;13.346;2022-10-16T03:09:48;19.30;97.70
15844;DHT22;50807;52.436;13.346;2022-10-16T03:10:19;19.30;97.70
15844;DHT22;50807;52.436;13.346;2022-10-16T03:10:51;19.30;97.70
15844;DHT22;50807;52.436;13.346;2022-10-16T03:11:22;19.30;97.70
15844;DHT22;50807;52.436;13.346;2022-10-16T03:11:53;19.30;97.70
15844;DHT22;50807;52.436;13.346;2022-10-16T03:12:24;19.30;97.70
15844;DHT22;50807;52.436;13.346;2022-10-16T03:12:55;19.30;97.70
15844;DHT22;50807;52.436;13.346;2022-10-16T03:13:26;19.30;97.70
15844;DHT22;50807;52.436;13.346;2022-10-16T03:13:59;19.30;97.70
15844;DHT22;50807;52.436;13.346;2022-10-16T03:14:30;19.30;97.80
15844;DHT22;50807;52.436;13.346;2022-10-16T03:15:00;19.20;97.80
15844;DHT22;50807;52.436;13.346;2022-10-16T03:15:32;19.30;97.80
15844;DHT22;50807;52.436;13.346;2022-10-16T03:16:03;19.20;97.80
15844;DHT22;50807;52.436;13.346;2022-10-16T03:16:34;19.20;97.80
15844;DHT22;50807;52.436;13.346;2022-10-16T03:17:06;19.30;97.80
15844;DHT22;50807;52.436;13.346;2022-10-16T03:17:37;19.20;97.90
15844;DHT22;50807;52.436;13.346;2022-10-16T03:18:08;19.20;97.90
15844;DHT22;50807;52.436;13.346;2022-10-16T03:18:39;19.20;97.90
15844;DHT22;50807;52.436;13.346;2022-10-16T03:19:10;19.20;97.90
15844;DHT22;50807;52.436;13.346;2022-10-16T03:19:41;19.20;98.20
15844;DHT22;50807;52.436;13.346;2022-10-16T03:20:13;19.20;97.90
15844;DHT22;50807;52.436;13.346;2022-10-16T03:20:44;19.20;97.90
15844;DHT22;50807;52.436;13.346;2022-10-16T03:21:15;19.20;97.90
15844;DHT22;50807;52.436;13.346;2022-10-16T03:21:47;19.20;97.90
15844;DHT22;50807;52.436;13.346;2022-10-16T03:22:17;19.30;97.90
15844;DHT22;50807;52.436;13.346;2022-10-16T03:22:48;19.20;97.90
15844;DHT22;50807;52.436;13.346;2022-10-16T03:23:20;19.20;97.90
15844;DHT22;50807;52.436;13.346;2022-10-16T03:23:51;19.20;97.90
15844;DHT22;50807;52.436;13.346;2022-10-16T03:24:22;19.20;97.90
15844;DHT22;50807;52.436;13.346;2022-10-16T03:24:53;19.20;97.90
15844;DHT22;50807;52.436;13.346;2022-10-16T03:25:24;19.20;97.90
15844;DHT22;50807;52.436;13.346;2022-10-16T03:25:55;19.30;97.90
15844;DHT22;50807;52.436;13.346;2022-10-16T03:26:26;19.30;97.90
15844;DHT22;50807;52.436;13.346;2022-10-16T03:26:57;19.20;97.90
15844;DHT22;50807;52.436;13.346;2022-10-16T03:27:28;19.20;97.90
15844;DHT22;50807;52.436;13.346;2022-10-16T03:27:59;19.20;97.90
15844;DHT22;50807;52.436;13.346;2022-10-16T03:28:30;19.20;97.90
15844;DHT22;50807;52.436;13.346;2022-10-16T03:29:03;19.20;97.90
15844;DHT22;50807;52.436;13.346;2022-10-16T03:29:35;19.20;97.90
15844;DHT22;50807;52.436;13.346;2022-10-16T03:30:07;19.20;97.90
15844;DHT22;50807;52.436;13.346;2022-10-16T03:30:39;19.20;97.90
15844;DHT22;50807;52.436;13.346;2022-10-16T03:31:11;19.20;97.90
15844;DHT22;50807;52.436;13.346;2022-10-16T03:31:41;19.20;97.90